Pagrindinis puslapis
METAR-TAF:

METAR-TAF

Oro uostai :

Pacific Missile Test Facility Barking Sands

Kekaha, Havajai, Jungtinės Amerikos Valstijos

platuma: 22-02-11N, ilguma: 159-47-11W, Aukštis: 4 m

Dabartinis oras

Ataskaita buvo paskelbta 34 minutes, ne 01:56 UTC
Vėjas 9 kt iš Šiaurės Vakarų
Temperatūra 27°C
Drėgmė 62%
Slėgis 1018 hPa
Matomumas: 16.1 km
Giedras dangus

METAR: PHBK 240156Z AUTO 32009KT 10SM CLR 27/19 A3007 RMK AO2 SLP185 T02670189

Laikas: 16:30 (02:30 UTC)


TAF: trūkstamas

Orai ataskaitas ir orų prognozės (METAR, TAF).

turimą stotys yra geltonos ir raudonos taškus žemėlapyje.

Perkelti pele per norėdami pamatyti stoties vardą.

Tada spustelėkite, norėdami matyti oro stebėjimo ir prognozės.

Norėdami pakeisti žemėlapį: spustelėkite ant žalios mygtukų su juodo kryžiaus žemyn,; žalią mygtuką su brūkšneliu, jei norite nutolinti; arba žalių rodyklių gretimoms žemėlapius.


METAR-TAF: